Time;durP1;ratioP1;P1;durP2;ratioP2;P2;SDS_P1;SDS_P2;PMS_P1;PMS_P2;Temp;Humidity;BMP_temperature;BMP_pressure;BME280_temperature;BME280_humidity;BME280_pressure;Samples;Min_cycle;Max_cycle;Signal;HPM_P1;HPM_P2
2021/06/03 00:06:55;;;;;;;20.73;12.87;;;;;;;9.29;58.21;99405.94;511540;1104;103234;-44
2021/06/03 00:17:02;;;;;;;32.47;17.43;;;;;;;8.86;58.92;99411.55;511474;1104;103174;-43
2021/06/03 00:27:08;;;;;;;27.23;15.53;;;;;;;8.75;59.63;99410.29;511331;1104;103575;-42
2021/06/03 00:37:14;;;;;;;24.97;14.80;;;;;;;8.83;60.58;99414.59;511596;1104;103556;-43
2021/06/03 00:47:21;;;;;;;29.93;16.40;;;;;;;8.93;60.99;99426.37;511459;1104;103194;-43
2021/06/03 00:57:27;;;;;;;40.50;20.87;;;;;;;8.88;61.44;99427.98;511362;1100;103177;-44
2021/06/03 01:07:34;;;;;;;37.00;19.43;;;;;;;8.43;61.21;99421.54;512497;1086;103223;-43
2021/06/03 01:17:41;;;;;;;29.30;16.25;;;;;;;8.25;61.86;99417.56;511698;1099;103211;-42
2021/06/03 01:27:48;;;;;;;25.17;16.37;;;;;;;8.29;62.15;99415.38;511653;1104;103133;-43
2021/06/03 01:37:57;;;;;;;31.13;18.37;;;;;;;8.32;62.60;99417.63;511576;1104;103179;-42
2021/06/03 01:48:06;;;;;;;33.33;20.93;;;;;;;8.15;62.90;99418.94;511571;1104;103139;-43
2021/06/03 01:58:12;;;;;;;;;;;;;;;8.05;63.84;99424.58;511499;1104;103187;-43
2021/06/03 02:08:19;;;;;;;42.67;20.27;;;;;;;7.82;63.60;99416.13;511343;1104;103538;-43
2021/06/03 02:18:31;;;;;;;30.80;18.03;;;;;;;7.80;64.02;99416.28;511576;1099;103232;-42
2021/06/03 02:28:38;;;;;;;28.93;18.47;;;;;;;7.91;64.07;99426.30;511512;1104;103169;-42
2021/06/03 02:38:44;;;;;;;29.73;19.33;;;;;;;7.89;64.42;99438.84;511286;1100;103170;-42
2021/06/03 02:48:51;;;;;;;36.07;22.10;;;;;;;7.86;64.56;99438.42;511360;1100;103174;-43
2021/06/03 02:58:57;;;;;;;40.25;24.35;;;;;;;7.74;64.51;99445.20;511202;1099;103174;-43
2021/06/03 03:09:03;;;;;;;30.37;19.53;;;;;;;8.02;64.72;99443.38;511338;1098;103174;-43
2021/06/03 03:19:08;;;;;;;35.23;21.30;;;;;;;9.90;64.03;99450.59;511238;1104;103538;-43
2021/06/03 03:29:14;;;;;;;33.90;20.83;;;;;;;12.32;62.53;99445.97;511356;1099;103583;-42
2021/06/03 03:39:20;;;;;;;36.77;21.90;;;;;;;13.98;61.02;99450.58;511440;1099;103192;-43
2021/06/03 03:49:27;;;;;;;30.27;20.47;;;;;;;15.42;58.75;99460.38;511240;1104;103199;-44
2021/06/03 03:59:33;;;;;;;32.30;22.37;;;;;;;16.10;57.59;99456.67;511440;1100;103224;-43
2021/06/03 04:09:39;;;;;;;29.70;18.20;;;;;;;17.29;56.18;99466.67;511340;1104;103171;-43
2021/06/03 04:19:45;;;;;;;29.25;20.45;;;;;;;18.47;55.25;99469.16;511291;1104;103169;-42
2021/06/03 04:40:11;;;;;;;22.03;18.40;;;;;;;21.28;52.19;99471.42;511434;1100;103211;-44
2021/06/03 04:50:19;;;;;;;17.63;13.20;;;;;;;22.25;50.24;99483.03;511463;1100;103458;-42
2021/06/03 05:00:27;;;;;;;11.03;9.87;;;;;;;22.58;48.91;99481.30;511495;1099;103653;-43
2021/06/03 05:10:34;;;;;;;11.70;8.20;;;;;;;23.05;46.21;99478.86;511407;1104;103701;-42
2021/06/03 05:20:40;;;;;;;10.40;7.00;;;;;;;22.67;45.58;99492.25;511404;1100;103282;-42
2021/06/03 05:30:47;;;;;;;9.93;5.93;;;;;;;21.86;43.10;99501.95;511569;1104;103196;-43
2021/06/03 05:40:53;;;;;;;6.78;4.28;;;;;;;22.11;44.70;99494.75;511305;1099;103205;-42
2021/06/03 05:50:59;;;;;;;9.90;3.93;;;;;;;21.91;40.39;99499.20;511467;1104;103230;-41
2021/06/03 06:01:06;;;;;;;5.50;3.90;;;;;;;22.23;41.38;99501.34;511263;1104;103118;-41
2021/06/03 06:11:12;;;;;;;5.97;3.43;;;;;;;22.88;41.02;99500.92;511444;1104;103143;-43
2021/06/03 06:21:20;;;;;;;6.63;3.23;;;;;;;22.55;38.06;99513.42;511316;1104;103235;-43
2021/06/03 06:31:27;;;;;;;5.55;3.45;;;;;;;22.61;38.04;99523.05;511518;1100;103163;-42
2021/06/03 06:41:34;;;;;;;8.33;3.98;;;;;;;22.66;37.46;99523.80;511494;1104;103198;-43
2021/06/03 06:51:39;;;;;;;5.50;3.97;;;;;;;22.05;36.71;99529.82;511610;1104;103494;-43
2021/06/03 07:01:46;;;;;;;4.93;4.00;;;;;;;21.89;36.56;99531.00;511610;1104;103201;-42
2021/06/03 07:11:52;;;;;;;10.80;3.70;;;;;;;21.38;35.13;99530.56;511494;1104;103216;-43
2021/06/03 07:21:59;;;;;;;5.27;2.87;;;;;;;21.31;35.38;99538.14;511621;1104;103243;-43
2021/06/03 07:32:07;;;;;;;4.70;2.97;;;;;;;21.58;36.38;99537.70;511311;1098;103181;-43
2021/06/03 07:42:11;;;;;;;5.03;3.15;;;;;;;21.96;36.45;99541.44;511378;1104;103189;-43
2021/06/03 07:52:17;;;;;;;6.90;2.60;;;;;;;21.84;35.39;99536.42;511424;1100;103170;-43
2021/06/03 08:02:22;;;;;;;4.20;2.20;;;;;;;21.69;34.30;99528.45;511516;1104;103575;-40
2021/06/03 08:12:28;;;;;;;2.47;2.27;;;;;;;21.68;34.15;99537.62;511633;1100;103170;-41
2021/06/03 08:22:35;;;;;;;4.37;2.60;;;;;;;21.82;33.37;99530.52;511555;1100;103482;-41
2021/06/03 08:32:40;;;;;;;4.13;2.13;;;;;;;21.61;34.69;99534.45;511319;1104;103224;-39
2021/06/03 08:42:49;;;;;;;4.40;2.20;;;;;;;21.79;34.24;99528.39;511382;1104;103171;-41
2021/06/03 08:52:57;;;;;;;4.10;2.10;;;;;;;22.59;33.17;99536.82;511544;1099;103173;-42
2021/06/03 09:03:04;;;;;;;3.67;2.63;;;;;;;22.28;32.61;99530.15;511510;1104;103121;-40
2021/06/03 09:13:12;;;;;;;4.67;2.37;;;;;;;22.82;33.09;99520.95;511395;1104;103171;-41
2021/06/03 09:23:29;;;;;;;5.70;2.17;;;;;;;22.92;32.34;99523.52;511776;1104;103173;-42
2021/06/03 09:33:55;;;;;;;4.43;2.30;;;;;;;22.66;33.05;99529.18;511425;1104;103202;-41
2021/06/03 09:44:20;;;;;;;3.87;2.13;;;;;;;22.07;33.55;99502.60;511453;1099;103546;-39
2021/06/03 09:54:30;;;;;;;3.50;2.10;;;;;;;22.73;31.77;99503.80;511514;1100;103219;-40
2021/06/03 10:04:39;;;;;;;5.10;2.00;;;;;;;22.86;31.27;99505.80;511336;1099;103173;-43
2021/06/03 10:14:45;;;;;;;4.33;1.67;;;;;;;23.36;31.30;99506.20;511488;1104;103216;-41
2021/06/03 10:24:59;;;;;;;5.17;2.30;;;;;;;23.07;30.81;99512.54;511466;1104;104448;-42
2021/06/03 10:35:08;;;;;;;7.43;2.10;;;;;;;23.38;30.41;99498.61;511466;1104;103269;-41
2021/06/03 10:45:17;;;;;;;3.03;2.30;;;;;;;23.28;30.41;99500.38;511580;1104;103174;-42
2021/06/03 10:55:26;;;;;;;2.30;2.10;;;;;;;23.39;31.04;99492.12;511527;1104;103160;-42
2021/06/03 11:05:34;;;;;;;4.47;2.13;;;;;;;22.68;31.23;99505.44;511399;1099;103216;-41
2021/06/03 11:16:12;;;;;;;5.73;2.33;;;;;;;22.90;31.67;99487.95;511564;1104;103170;-42
2021/06/03 11:26:54;;;;;;;7.33;2.07;;;;;;;22.96;31.26;99482.22;511603;1100;103273;-41
2021/06/03 11:37:01;;;;;;;4.40;2.33;;;;;;;23.51;31.78;99476.30;511603;1100;103534;-41
2021/06/03 11:47:07;;;;;;;5.65;2.65;;;;;;;23.66;31.19;99483.36;511352;1098;103174;-43
2021/06/03 11:57:14;;;;;;;3.95;2.25;;;;;;;23.24;31.79;99468.88;511367;1100;103177;-41
2021/06/03 12:07:41;;;;;;;4.80;2.77;;;;;;;23.49;31.99;99451.49;511499;1104;103576;-43
2021/06/03 12:28:14;;;;;;;3.15;2.23;;;;;;;23.05;31.79;99449.98;511519;1104;103168;-41
2021/06/03 12:38:26;;;;;;;3.13;2.83;;;;;;;22.86;31.99;99447.28;511404;1099;103210;-44
2021/06/03 12:48:32;;;;;;;6.17;2.27;;;;;;;23.24;32.17;99428.41;511466;1104;103176;-41
2021/06/03 12:58:38;;;;;;;6.13;3.03;;;;;;;23.22;31.83;99419.80;511423;1104;103525;-43
2021/06/03 13:08:44;;;;;;;4.57;2.57;;;;;;;23.46;31.66;99414.30;511352;1104;103467;-41
2021/06/03 13:18:50;;;;;;;3.07;2.30;;;;;;;23.18;31.73;99400.68;511459;1104;103165;-42
2021/06/03 13:28:58;;;;;;;3.60;2.87;;;;;;;23.16;32.12;99400.17;511268;1104;104166;-42
2021/06/03 13:39:04;;;;;;;3.30;3.00;;;;;;;23.33;31.77;99399.65;511550;1104;103239;-43
2021/06/03 13:59:55;;;;;;;4.97;3.10;;;;;;;23.00;31.81;99396.13;511400;1104;103139;-43
2021/06/03 14:10:07;;;;;;;6.60;2.70;;;;;;;22.07;32.74;99397.56;511388;1100;103222;-42
2021/06/03 14:30:33;;;;;;;5.87;3.17;;;;;;;22.79;32.25;99390.19;511280;1104;103174;-43
2021/06/03 14:40:41;;;;;;;5.03;2.60;;;;;;;22.89;32.44;99376.58;511602;1099;103183;-42
2021/06/03 14:50:53;;;;;;;4.53;2.57;;;;;;;22.97;32.44;99375.14;511502;1104;103291;-41
2021/06/03 15:01:01;;;;;;;15.83;5.67;;;;;;;22.76;32.55;99381.89;511505;1100;103668;-42
2021/06/03 15:11:08;;;;;;;6.13;2.60;;;;;;;22.54;32.82;99377.06;511537;1104;103541;-42
2021/06/03 15:21:13;;;;;;;5.17;2.87;;;;;;;22.61;32.82;99366.72;511376;1104;103194;-41
2021/06/03 15:31:20;;;;;;;4.40;2.80;;;;;;;22.57;32.99;99373.78;511571;1100;103135;-40
2021/06/03 15:41:26;;;;;;;4.67;2.30;;;;;;;22.58;31.73;99360.02;511518;1104;103579;-41
2021/06/03 15:51:33;;;;;;;6.63;2.80;;;;;;;22.53;32.33;99357.39;511384;1104;103176;-42
2021/06/03 16:12:02;;;;;;;7.50;3.50;;;;;;;22.44;31.94;99359.11;511586;1100;103169;-40
2021/06/03 16:22:07;;;;;;;10.55;4.55;;;;;;;22.42;32.36;99350.52;511781;1104;103126;-42
2021/06/03 16:32:14;;;;;;;4.93;2.53;;;;;;;22.30;32.13;99352.85;511626;1104;103174;-41
2021/06/03 16:42:19;;;;;;;3.57;2.47;;;;;;;22.20;32.11;99339.49;511549;1104;103230;-42
2021/06/03 16:52:25;;;;;;;7.45;2.90;;;;;;;22.15;32.68;99355.72;511270;1104;103230;-41
2021/06/03 17:02:31;;;;;;;3.20;2.45;;;;;;;21.96;32.82;99348.36;511401;1104;103583;-40
2021/06/03 17:12:37;;;;;;;3.80;2.73;;;;;;;21.85;33.29;99357.65;511498;1099;103538;-41
2021/06/03 17:22:44;;;;;;;4.53;2.27;;;;;;;21.73;33.49;99352.64;511341;1104;104283;-42
2021/06/03 17:32:50;;;;;;;3.20;2.90;;;;;;;21.53;33.61;99365.49;511516;1104;103545;-41
2021/06/03 17:42:58;;;;;;;4.30;2.87;;;;;;;21.32;34.26;99362.20;511435;1104;103222;-39
2021/06/03 17:53:06;;;;;;;5.03;3.30;;;;;;;21.12;34.50;99369.31;511470;1104;103168;-41
2021/06/03 18:13:32;;;;;;;7.95;4.00;;;;;;;20.53;36.10;99374.79;511548;1104;103217;-41
2021/06/03 18:23:38;;;;;;;6.20;3.37;;;;;;;20.18;36.98;99384.59;511729;1104;103195;-40
2021/06/03 18:33:44;;;;;;;8.63;5.13;;;;;;;19.78;37.34;99388.17;511514;1100;104649;-39
2021/06/03 18:43:51;;;;;;;9.27;4.57;;;;;;;19.26;38.38;99397.30;511671;1104;103176;-41
2021/06/03 18:53:57;;;;;;;11.50;4.80;;;;;;;18.73;39.69;99400.45;511531;1104;103288;-42
2021/06/03 19:04:04;;;;;;;7.60;4.30;;;;;;;18.17;40.89;99403.66;511405;1100;103197;-42
2021/06/03 19:14:10;;;;;;;10.43;5.43;;;;;;;17.63;41.47;99413.73;511250;1099;103171;-41
2021/06/03 19:24:16;;;;;;;7.50;5.90;;;;;;;17.12;42.31;99421.33;511328;1104;103537;-41
2021/06/03 19:34:21;;;;;;;10.00;7.13;;;;;;;16.71;43.21;99422.77;511384;1100;103579;-41
2021/06/03 19:44:26;;;;;;;13.57;8.43;;;;;;;16.40;44.65;99422.38;511464;1104;103546;-41
2021/06/03 19:54:34;;;;;;;12.97;8.90;;;;;;;16.02;45.47;99425.06;511418;1100;103170;-41
2021/06/03 20:04:40;;;;;;;16.33;10.17;;;;;;;15.72;46.26;99428.09;511395;1104;103564;-41
2021/06/03 20:14:46;;;;;;;22.55;10.60;;;;;;;15.37;47.04;99423.77;511392;1100;103287;-40
2021/06/03 20:24:53;;;;;;;23.90;10.70;;;;;;;15.03;47.91;99428.25;511410;1099;104270;-41
2021/06/03 20:34:59;;;;;;;20.80;11.27;;;;;;;14.69;48.87;99427.36;511273;1104;103176;-40
2021/06/03 20:45:04;;;;;;;16.63;11.60;;;;;;;14.43;50.08;99434.83;511311;1100;103171;-42
2021/06/03 20:55:11;;;;;;;19.60;13.00;;;;;;;14.32;50.93;99435.62;511523;1104;103220;-42
2021/06/03 21:05:22;;;;;;;18.57;11.83;;;;;;;14.28;51.51;99434.47;511452;1104;103259;-41
2021/06/03 21:15:28;;;;;;;24.70;12.53;;;;;;;14.07;51.92;99435.88;511608;1104;103202;-42
2021/06/03 21:25:35;;;;;;;17.60;12.00;;;;;;;13.88;52.58;99442.35;511185;1104;103176;-41
2021/06/03 21:46:04;;;;;;;19.47;12.00;;;;;;;13.19;54.10;99443.86;511405;1104;103201;-41
2021/06/03 21:56:11;;;;;;;20.63;11.73;;;;;;;12.94;54.46;99432.55;511535;1104;103541;-41
2021/06/03 22:16:37;;;;;;;14.50;11.07;;;;;;;12.93;55.33;99446.85;511348;1099;103534;-43
2021/06/03 22:26:43;;;;;;;19.03;12.70;;;;;;;12.79;55.98;99441.73;511417;1099;103531;-40
2021/06/03 22:36:49;;;;;;;23.53;14.43;;;;;;;12.87;56.29;99452.03;511651;1104;103155;-42
2021/06/03 22:46:55;;;;;;;24.57;16.27;;;;;;;12.89;56.71;99442.00;511719;1099;103240;-40
2021/06/03 22:57:01;;;;;;;23.27;14.57;;;;;;;13.12;56.86;99443.13;511452;1104;103531;-42
2021/06/03 23:07:08;;;;;;;26.37;15.37;;;;;;;13.37;56.72;99445.64;511539;1104;103569;-45
2021/06/03 23:17:14;;;;;;;27.20;14.30;;;;;;;13.17;56.56;99452.05;511583;1099;103208;-43
2021/06/03 23:27:21;;;;;;;25.70;15.27;;;;;;;13.13;56.88;99456.17;511456;1100;103653;-41
2021/06/03 23:37:27;;;;;;;25.75;15.10;;;;;;;13.11;56.54;99449.47;511530;1100;103327;-43
2021/06/03 23:47:34;;;;;;;17.40;13.23;;;;;;;12.98;56.65;99436.36;511414;1104;103168;-43
2021/06/03 23:57:40;;;;;;;21.70;13.70;;;;;;;12.84;57.05;99446.36;511566;1100;103288;-41
